sensor_id;sensor_type;location;lat;lon;timestamp;P1;durP1;ratioP1;P2;durP2;ratioP2
21943;SDS011;11136;48.778;9.126;2022-12-24T00:01:04;5.15;;;2.08;;
21943;SDS011;11136;48.778;9.126;2022-12-24T00:03:32;3.40;;;1.27;;
21943;SDS011;11136;48.778;9.126;2022-12-24T00:05:58;3.33;;;1.90;;
21943;SDS011;11136;48.778;9.126;2022-12-24T00:08:23;8.65;;;1.65;;
21943;SDS011;11136;48.778;9.126;2022-12-24T00:10:50;6.85;;;1.58;;
21943;SDS011;11136;48.778;9.126;2022-12-24T00:13:16;4.65;;;1.45;;
21943;SDS011;11136;48.778;9.126;2022-12-24T00:15:42;4.50;;;1.17;;
21943;SDS011;11136;48.778;9.126;2022-12-24T00:18:08;3.15;;;1.00;;
21943;SDS011;11136;48.778;9.126;2022-12-24T00:20:33;4.03;;;1.02;;
21943;SDS011;11136;48.778;9.126;2022-12-24T00:22:59;5.80;;;1.55;;
21943;SDS011;11136;48.778;9.126;2022-12-24T00:25:24;3.63;;;1.50;;
21943;SDS011;11136;48.778;9.126;2022-12-24T00:27:50;7.07;;;1.50;;
21943;SDS011;11136;48.778;9.126;2022-12-24T00:30:15;3.20;;;1.17;;
21943;SDS011;11136;48.778;9.126;2022-12-24T00:32:41;4.70;;;1.50;;
21943;SDS011;11136;48.778;9.126;2022-12-24T00:35:07;5.07;;;1.75;;
21943;SDS011;11136;48.778;9.126;2022-12-24T00:37:32;5.90;;;1.33;;
21943;SDS011;11136;48.778;9.126;2022-12-24T00:39:58;6.25;;;1.70;;
21943;SDS011;11136;48.778;9.126;2022-12-24T00:42:23;4.07;;;1.63;;
21943;SDS011;11136;48.778;9.126;2022-12-24T00:44:49;4.97;;;1.77;;
21943;SDS011;11136;48.778;9.126;2022-12-24T00:47:14;8.18;;;1.85;;
21943;SDS011;11136;48.778;9.126;2022-12-24T00:49:40;4.88;;;1.70;;
21943;SDS011;11136;48.778;9.126;2022-12-24T00:52:05;7.93;;;1.30;;
21943;SDS011;11136;48.778;9.126;2022-12-24T00:54:31;4.43;;;1.38;;
21943;SDS011;11136;48.778;9.126;2022-12-24T00:56:56;6.85;;;1.42;;
21943;SDS011;11136;48.778;9.126;2022-12-24T00:59:22;3.15;;;1.10;;
21943;SDS011;11136;48.778;9.126;2022-12-24T01:01:47;4.13;;;1.70;;
21943;SDS011;11136;48.778;9.126;2022-12-24T01:04:13;8.52;;;1.75;;
21943;SDS011;11136;48.778;9.126;2022-12-24T01:06:57;6.32;;;1.10;;
21943;SDS011;11136;48.778;9.126;2022-12-24T01:09:23;5.78;;;1.30;;
21943;SDS011;11136;48.778;9.126;2022-12-24T01:11:48;6.78;;;1.33;;
21943;SDS011;11136;48.778;9.126;2022-12-24T01:14:14;6.65;;;1.52;;
21943;SDS011;11136;48.778;9.126;2022-12-24T01:16:39;3.05;;;1.30;;
21943;SDS011;11136;48.778;9.126;2022-12-24T01:19:05;5.30;;;1.50;;
21943;SDS011;11136;48.778;9.126;2022-12-24T01:21:30;10.85;;;1.88;;
21943;SDS011;11136;48.778;9.126;2022-12-24T01:23:56;4.82;;;1.67;;
21943;SDS011;11136;48.778;9.126;2022-12-24T01:26:22;2.72;;;1.48;;
21943;SDS011;11136;48.778;9.126;2022-12-24T01:28:47;3.97;;;1.40;;
21943;SDS011;11136;48.778;9.126;2022-12-24T01:31:14;7.05;;;1.58;;
21943;SDS011;11136;48.778;9.126;2022-12-24T01:33:41;8.32;;;2.05;;
21943;SDS011;11136;48.778;9.126;2022-12-24T01:36:07;5.88;;;1.50;;
21943;SDS011;11136;48.778;9.126;2022-12-24T01:38:33;4.38;;;1.80;;
21943;SDS011;11136;48.778;9.126;2022-12-24T01:40:59;6.97;;;1.90;;
21943;SDS011;11136;48.778;9.126;2022-12-24T01:43:43;5.20;;;1.50;;
21943;SDS011;11136;48.778;9.126;2022-12-24T01:46:17;6.95;;;1.70;;
21943;SDS011;11136;48.778;9.126;2022-12-24T01:48:51;6.80;;;2.30;;
21943;SDS011;11136;48.778;9.126;2022-12-24T01:51:26;8.07;;;2.47;;
21943;SDS011;11136;48.778;9.126;2022-12-24T01:54:15;6.03;;;2.25;;
21943;SDS011;11136;48.778;9.126;2022-12-24T01:56:50;10.50;;;2.28;;
21943;SDS011;11136;48.778;9.126;2022-12-24T01:59:19;12.85;;;2.15;;
21943;SDS011;11136;48.778;9.126;2022-12-24T02:01:47;6.75;;;1.83;;
21943;SDS011;11136;48.778;9.126;2022-12-24T02:07:16;3.08;;;1.70;;
21943;SDS011;11136;48.778;9.126;2022-12-24T02:09:42;6.07;;;2.08;;
21943;SDS011;11136;48.778;9.126;2022-12-24T02:12:08;7.70;;;1.98;;
21943;SDS011;11136;48.778;9.126;2022-12-24T02:14:34;6.38;;;2.10;;
21943;SDS011;11136;48.778;9.126;2022-12-24T02:17:03;3.33;;;1.77;;
21943;SDS011;11136;48.778;9.126;2022-12-24T02:19:50;8.43;;;2.13;;
21943;SDS011;11136;48.778;9.126;2022-12-24T02:31:21;8.93;;;1.90;;
21943;SDS011;11136;48.778;9.126;2022-12-24T02:36:31;5.88;;;1.83;;
21943;SDS011;11136;48.778;9.126;2022-12-24T02:39:05;7.43;;;1.80;;
21943;SDS011;11136;48.778;9.126;2022-12-24T02:41:53;5.85;;;1.70;;
21943;SDS011;11136;48.778;9.126;2022-12-24T02:44:30;5.80;;;1.70;;
21943;SDS011;11136;48.778;9.126;2022-12-24T02:47:00;7.70;;;2.03;;
21943;SDS011;11136;48.778;9.126;2022-12-24T02:49:29;12.63;;;1.92;;
21943;SDS011;11136;48.778;9.126;2022-12-24T02:51:54;13.73;;;2.20;;
21943;SDS011;11136;48.778;9.126;2022-12-24T02:54:20;9.23;;;1.92;;
21943;SDS011;11136;48.778;9.126;2022-12-24T02:56:59;5.97;;;1.90;;
21943;SDS011;11136;48.778;9.126;2022-12-24T03:02:40;5.72;;;1.85;;
21943;SDS011;11136;48.778;9.126;2022-12-24T03:05:47;8.73;;;2.00;;
21943;SDS011;11136;48.778;9.126;2022-12-24T03:10:56;9.70;;;1.80;;
21943;SDS011;11136;48.778;9.126;2022-12-24T03:13:27;8.10;;;1.95;;
21943;SDS011;11136;48.778;9.126;2022-12-24T03:15:53;6.15;;;1.85;;
21943;SDS011;11136;48.778;9.126;2022-12-24T03:18:20;6.25;;;2.22;;
21943;SDS011;11136;48.778;9.126;2022-12-24T03:20:54;5.07;;;1.60;;
21943;SDS011;11136;48.778;9.126;2022-12-24T03:23:24;4.85;;;1.55;;
21943;SDS011;11136;48.778;9.126;2022-12-24T03:25:50;5.97;;;2.20;;
21943;SDS011;11136;48.778;9.126;2022-12-24T03:28:16;9.90;;;1.25;;
21943;SDS011;11136;48.778;9.126;2022-12-24T03:30:44;13.10;;;1.73;;
21943;SDS011;11136;48.778;9.126;2022-12-24T03:33:12;4.35;;;1.55;;
21943;SDS011;11136;48.778;9.126;2022-12-24T03:35:38;8.73;;;1.90;;
21943;SDS011;11136;48.778;9.126;2022-12-24T03:38:04;10.30;;;1.98;;
21943;SDS011;11136;48.778;9.126;2022-12-24T03:40:29;6.35;;;1.75;;
21943;SDS011;11136;48.778;9.126;2022-12-24T03:42:55;7.70;;;1.80;;
21943;SDS011;11136;48.778;9.126;2022-12-24T03:45:21;6.72;;;1.40;;
21943;SDS011;11136;48.778;9.126;2022-12-24T03:47:46;7.55;;;1.70;;
21943;SDS011;11136;48.778;9.126;2022-12-24T03:50:12;6.25;;;1.60;;
21943;SDS011;11136;48.778;9.126;2022-12-24T03:52:37;5.22;;;1.52;;
21943;SDS011;11136;48.778;9.126;2022-12-24T03:55:03;7.10;;;1.63;;
21943;SDS011;11136;48.778;9.126;2022-12-24T03:57:29;7.60;;;1.65;;
21943;SDS011;11136;48.778;9.126;2022-12-24T03:59:55;8.68;;;2.42;;
21943;SDS011;11136;48.778;9.126;2022-12-24T04:02:20;7.70;;;2.17;;
21943;SDS011;11136;48.778;9.126;2022-12-24T04:04:46;7.68;;;1.88;;
21943;SDS011;11136;48.778;9.126;2022-12-24T04:07:11;4.57;;;1.40;;
21943;SDS011;11136;48.778;9.126;2022-12-24T04:09:37;5.15;;;1.33;;
21943;SDS011;11136;48.778;9.126;2022-12-24T04:12:03;6.18;;;2.08;;
21943;SDS011;11136;48.778;9.126;2022-12-24T04:14:29;11.88;;;2.47;;
21943;SDS011;11136;48.778;9.126;2022-12-24T04:16:54;6.88;;;1.63;;
21943;SDS011;11136;48.778;9.126;2022-12-24T04:19:20;7.32;;;1.67;;
21943;SDS011;11136;48.778;9.126;2022-12-24T04:21:45;6.35;;;1.60;;
21943;SDS011;11136;48.778;9.126;2022-12-24T04:24:11;9.32;;;2.03;;
21943;SDS011;11136;48.778;9.126;2022-12-24T04:26:36;7.03;;;1.77;;
21943;SDS011;11136;48.778;9.126;2022-12-24T04:29:02;7.97;;;1.88;;
21943;SDS011;11136;48.778;9.126;2022-12-24T04:31:27;9.88;;;1.80;;
21943;SDS011;11136;48.778;9.126;2022-12-24T04:33:53;5.68;;;2.33;;
21943;SDS011;11136;48.778;9.126;2022-12-24T04:36:18;16.77;;;2.33;;
21943;SDS011;11136;48.778;9.126;2022-12-24T04:38:45;9.18;;;2.33;;
21943;SDS011;11136;48.778;9.126;2022-12-24T04:41:13;6.40;;;2.00;;
21943;SDS011;11136;48.778;9.126;2022-12-24T04:43:41;6.93;;;2.22;;
21943;SDS011;11136;48.778;9.126;2022-12-24T04:46:17;5.32;;;1.58;;
21943;SDS011;11136;48.778;9.126;2022-12-24T04:48:45;4.90;;;1.90;;
21943;SDS011;11136;48.778;9.126;2022-12-24T04:51:12;13.65;;;2.72;;
21943;SDS011;11136;48.778;9.126;2022-12-24T04:53:39;11.93;;;2.13;;
21943;SDS011;11136;48.778;9.126;2022-12-24T04:56:10;12.27;;;2.85;;
21943;SDS011;11136;48.778;9.126;2022-12-24T04:58:40;9.10;;;2.33;;
21943;SDS011;11136;48.778;9.126;2022-12-24T05:01:07;3.05;;;1.30;;
21943;SDS011;11136;48.778;9.126;2022-12-24T05:03:37;12.95;;;2.47;;
21943;SDS011;11136;48.778;9.126;2022-12-24T05:06:03;9.20;;;2.20;;
21943;SDS011;11136;48.778;9.126;2022-12-24T05:08:30;14.60;;;2.42;;
21943;SDS011;11136;48.778;9.126;2022-12-24T05:10:57;11.57;;;2.00;;
21943;SDS011;11136;48.778;9.126;2022-12-24T05:13:23;5.07;;;1.90;;
21943;SDS011;11136;48.778;9.126;2022-12-24T05:15:50;12.38;;;2.83;;
21943;SDS011;11136;48.778;9.126;2022-12-24T05:18:15;7.22;;;1.92;;
21943;SDS011;11136;48.778;9.126;2022-12-24T05:20:41;7.97;;;2.13;;
21943;SDS011;11136;48.778;9.126;2022-12-24T05:23:08;8.68;;;2.20;;
21943;SDS011;11136;48.778;9.126;2022-12-24T05:26:02;9.93;;;3.03;;
21943;SDS011;11136;48.778;9.126;2022-12-24T05:28:53;9.00;;;2.00;;
21943;SDS011;11136;48.778;9.126;2022-12-24T05:31:20;12.73;;;2.63;;
21943;SDS011;11136;48.778;9.126;2022-12-24T05:33:48;7.30;;;2.05;;
21943;SDS011;11136;48.778;9.126;2022-12-24T05:36:14;5.93;;;1.67;;
21943;SDS011;11136;48.778;9.126;2022-12-24T05:38:40;9.25;;;2.30;;
21943;SDS011;11136;48.778;9.126;2022-12-24T05:41:06;11.77;;;2.30;;
21943;SDS011;11136;48.778;9.126;2022-12-24T05:43:33;9.40;;;2.05;;
21943;SDS011;11136;48.778;9.126;2022-12-24T05:46:00;7.10;;;2.55;;
21943;SDS011;11136;48.778;9.126;2022-12-24T05:48:28;13.98;;;2.83;;
21943;SDS011;11136;48.778;9.126;2022-12-24T05:50:54;10.90;;;2.28;;
21943;SDS011;11136;48.778;9.126;2022-12-24T05:53:20;9.05;;;2.40;;
21943;SDS011;11136;48.778;9.126;2022-12-24T05:55:46;6.95;;;2.30;;
21943;SDS011;11136;48.778;9.126;2022-12-24T05:58:11;11.43;;;2.63;;
21943;SDS011;11136;48.778;9.126;2022-12-24T06:00:37;7.65;;;1.95;;
21943;SDS011;11136;48.778;9.126;2022-12-24T06:03:03;6.50;;;2.22;;
21943;SDS011;11136;48.778;9.126;2022-12-24T06:05:28;8.77;;;2.58;;
21943;SDS011;11136;48.778;9.126;2022-12-24T06:07:54;6.85;;;2.42;;
21943;SDS011;11136;48.778;9.126;2022-12-24T06:10:19;12.95;;;2.00;;
21943;SDS011;11136;48.778;9.126;2022-12-24T06:12:45;5.80;;;1.63;;
21943;SDS011;11136;48.778;9.126;2022-12-24T06:15:11;14.25;;;2.95;;
21943;SDS011;11136;48.778;9.126;2022-12-24T06:17:37;14.48;;;2.80;;
21943;SDS011;11136;48.778;9.126;2022-12-24T06:20:02;9.52;;;2.03;;
21943;SDS011;11136;48.778;9.126;2022-12-24T06:22:28;10.48;;;2.50;;
21943;SDS011;11136;48.778;9.126;2022-12-24T06:24:54;9.60;;;2.50;;
21943;SDS011;11136;48.778;9.126;2022-12-24T06:27:19;8.68;;;1.80;;
21943;SDS011;11136;48.778;9.126;2022-12-24T06:29:45;6.75;;;1.95;;
21943;SDS011;11136;48.778;9.126;2022-12-24T06:32:10;5.50;;;2.00;;
21943;SDS011;11136;48.778;9.126;2022-12-24T06:34:36;4.13;;;1.80;;
21943;SDS011;11136;48.778;9.126;2022-12-24T06:37:02;9.27;;;2.58;;
21943;SDS011;11136;48.778;9.126;2022-12-24T06:39:27;9.65;;;2.20;;
21943;SDS011;11136;48.778;9.126;2022-12-24T06:41:53;7.10;;;2.00;;
21943;SDS011;11136;48.778;9.126;2022-12-24T06:44:18;6.03;;;1.85;;
21943;SDS011;11136;48.778;9.126;2022-12-24T06:46:44;5.95;;;1.60;;
21943;SDS011;11136;48.778;9.126;2022-12-24T06:49:09;12.23;;;2.33;;
21943;SDS011;11136;48.778;9.126;2022-12-24T06:51:35;4.88;;;1.40;;
21943;SDS011;11136;48.778;9.126;2022-12-24T06:54:00;8.85;;;1.83;;
21943;SDS011;11136;48.778;9.126;2022-12-24T06:56:26;10.75;;;2.38;;
21943;SDS011;11136;48.778;9.126;2022-12-24T06:58:52;9.27;;;2.28;;
21943;SDS011;11136;48.778;9.126;2022-12-24T07:01:18;9.05;;;2.05;;
21943;SDS011;11136;48.778;9.126;2022-12-24T07:03:44;11.45;;;2.10;;
21943;SDS011;11136;48.778;9.126;2022-12-24T07:06:15;8.43;;;2.80;;
21943;SDS011;11136;48.778;9.126;2022-12-24T07:08:52;6.50;;;2.25;;
21943;SDS011;11136;48.778;9.126;2022-12-24T07:11:18;5.18;;;2.03;;
21943;SDS011;11136;48.778;9.126;2022-12-24T07:13:45;6.60;;;1.52;;
21943;SDS011;11136;48.778;9.126;2022-12-24T07:16:11;8.65;;;2.05;;
21943;SDS011;11136;48.778;9.126;2022-12-24T07:18:36;4.50;;;1.80;;
21943;SDS011;11136;48.778;9.126;2022-12-24T07:21:03;8.90;;;2.05;;
21943;SDS011;11136;48.778;9.126;2022-12-24T07:23:30;3.92;;;2.05;;
21943;SDS011;11136;48.778;9.126;2022-12-24T07:26:03;7.40;;;2.00;;
21943;SDS011;11136;48.778;9.126;2022-12-24T07:28:30;5.85;;;2.22;;
21943;SDS011;11136;48.778;9.126;2022-12-24T07:30:56;5.13;;;1.92;;
21943;SDS011;11136;48.778;9.126;2022-12-24T07:33:22;8.95;;;2.05;;
21943;SDS011;11136;48.778;9.126;2022-12-24T07:35:56;6.90;;;2.10;;
21943;SDS011;11136;48.778;9.126;2022-12-24T07:38:23;7.93;;;2.03;;
21943;SDS011;11136;48.778;9.126;2022-12-24T07:40:48;9.45;;;1.80;;
21943;SDS011;11136;48.778;9.126;2022-12-24T07:43:14;8.77;;;1.50;;
21943;SDS011;11136;48.778;9.126;2022-12-24T07:45:39;7.45;;;2.20;;
21943;SDS011;11136;48.778;9.126;2022-12-24T07:48:05;2.97;;;1.50;;
21943;SDS011;11136;48.778;9.126;2022-12-24T07:50:30;11.27;;;2.33;;
21943;SDS011;11136;48.778;9.126;2022-12-24T07:52:56;8.43;;;1.85;;
21943;SDS011;11136;48.778;9.126;2022-12-24T07:55:21;7.72;;;2.15;;
21943;SDS011;11136;48.778;9.126;2022-12-24T07:57:47;8.07;;;2.50;;
21943;SDS011;11136;48.778;9.126;2022-12-24T08:00:13;7.03;;;1.80;;
21943;SDS011;11136;48.778;9.126;2022-12-24T08:02:39;10.23;;;2.58;;
21943;SDS011;11136;48.778;9.126;2022-12-24T08:05:05;7.03;;;1.90;;
21943;SDS011;11136;48.778;9.126;2022-12-24T08:07:30;6.93;;;1.75;;
21943;SDS011;11136;48.778;9.126;2022-12-24T08:09:56;7.95;;;1.55;;
21943;SDS011;11136;48.778;9.126;2022-12-24T08:12:22;8.93;;;2.17;;
21943;SDS011;11136;48.778;9.126;2022-12-24T08:14:48;6.13;;;2.05;;
21943;SDS011;11136;48.778;9.126;2022-12-24T08:17:13;7.43;;;1.98;;
21943;SDS011;11136;48.778;9.126;2022-12-24T08:19:39;8.32;;;2.28;;
21943;SDS011;11136;48.778;9.126;2022-12-24T08:22:04;13.88;;;1.88;;
21943;SDS011;11136;48.778;9.126;2022-12-24T08:24:30;9.07;;;1.88;;
21943;SDS011;11136;48.778;9.126;2022-12-24T08:26:56;12.60;;;2.20;;
21943;SDS011;11136;48.778;9.126;2022-12-24T08:29:22;7.25;;;1.90;;
21943;SDS011;11136;48.778;9.126;2022-12-24T08:31:47;7.75;;;2.45;;
21943;SDS011;11136;48.778;9.126;2022-12-24T08:34:13;3.55;;;1.50;;
21943;SDS011;11136;48.778;9.126;2022-12-24T08:36:38;8.07;;;2.38;;
21943;SDS011;11136;48.778;9.126;2022-12-24T08:39:04;9.75;;;2.30;;
21943;SDS011;11136;48.778;9.126;2022-12-24T08:41:32;7.63;;;2.33;;
21943;SDS011;11136;48.778;9.126;2022-12-24T08:43:58;8.77;;;2.40;;
21943;SDS011;11136;48.778;9.126;2022-12-24T08:46:24;6.28;;;2.58;;
21943;SDS011;11136;48.778;9.126;2022-12-24T08:48:49;3.13;;;1.90;;
21943;SDS011;11136;48.778;9.126;2022-12-24T08:51:15;5.78;;;2.20;;
21943;SDS011;11136;48.778;9.126;2022-12-24T08:53:43;11.77;;;2.63;;
21943;SDS011;11136;48.778;9.126;2022-12-24T08:56:09;5.78;;;2.38;;
21943;SDS011;11136;48.778;9.126;2022-12-24T08:58:35;9.27;;;4.30;;
21943;SDS011;11136;48.778;9.126;2022-12-24T09:01:08;10.50;;;4.55;;
21943;SDS011;11136;48.778;9.126;2022-12-24T09:03:35;13.52;;;4.80;;
21943;SDS011;11136;48.778;9.126;2022-12-24T09:06:04;12.50;;;4.78;;
21943;SDS011;11136;48.778;9.126;2022-12-24T09:08:31;8.75;;;2.33;;
21943;SDS011;11136;48.778;9.126;2022-12-24T09:11:01;10.80;;;4.05;;
21943;SDS011;11136;48.778;9.126;2022-12-24T09:13:34;12.23;;;5.13;;
21943;SDS011;11136;48.778;9.126;2022-12-24T09:16:00;13.40;;;7.13;;
21943;SDS011;11136;48.778;9.126;2022-12-24T09:18:26;16.52;;;9.05;;
21943;SDS011;11136;48.778;9.126;2022-12-24T09:20:57;9.93;;;2.97;;
21943;SDS011;11136;48.778;9.126;2022-12-24T09:25:49;10.07;;;2.60;;
21943;SDS011;11136;48.778;9.126;2022-12-24T09:28:14;8.25;;;2.10;;
21943;SDS011;11136;48.778;9.126;2022-12-24T09:30:40;9.55;;;2.45;;
21943;SDS011;11136;48.778;9.126;2022-12-24T09:33:05;7.20;;;2.22;;
21943;SDS011;11136;48.778;9.126;2022-12-24T09:35:31;10.48;;;2.78;;
21943;SDS011;11136;48.778;9.126;2022-12-24T09:37:56;11.65;;;3.08;;
21943;SDS011;11136;48.778;9.126;2022-12-24T09:43:05;10.73;;;2.70;;
21943;SDS011;11136;48.778;9.126;2022-12-24T09:45:43;8.65;;;2.65;;
21943;SDS011;11136;48.778;9.126;2022-12-24T09:48:30;11.07;;;3.05;;
21943;SDS011;11136;48.778;9.126;2022-12-24T09:53:37;10.63;;;3.55;;
21943;SDS011;11136;48.778;9.126;2022-12-24T09:56:16;11.52;;;2.83;;
21943;SDS011;11136;48.778;9.126;2022-12-24T09:58:46;7.80;;;3.22;;
21943;SDS011;11136;48.778;9.126;2022-12-24T10:01:22;8.50;;;2.60;;
21943;SDS011;11136;48.778;9.126;2022-12-24T10:03:48;9.85;;;2.88;;
21943;SDS011;11136;48.778;9.126;2022-12-24T10:06:17;15.07;;;3.30;;
21943;SDS011;11136;48.778;9.126;2022-12-24T10:08:57;8.35;;;2.63;;
21943;SDS011;11136;48.778;9.126;2022-12-24T10:17:29;8.52;;;3.05;;
21943;SDS011;11136;48.778;9.126;2022-12-24T10:25:47;9.75;;;2.85;;
21943;SDS011;11136;48.778;9.126;2022-12-24T10:28:40;12.20;;;3.15;;
21943;SDS011;11136;48.778;9.126;2022-12-24T10:31:12;5.47;;;1.58;;
21943;SDS011;11136;48.778;9.126;2022-12-24T10:33:40;12.93;;;3.08;;
21943;SDS011;11136;48.778;9.126;2022-12-24T10:36:15;8.15;;;2.03;;
21943;SDS011;11136;48.778;9.126;2022-12-24T10:38:44;11.27;;;2.15;;
21943;SDS011;11136;48.778;9.126;2022-12-24T10:41:11;7.97;;;2.35;;
21943;SDS011;11136;48.778;9.126;2022-12-24T10:43:38;10.93;;;2.85;;
21943;SDS011;11136;48.778;9.126;2022-12-24T10:46:09;10.25;;;3.75;;
21943;SDS011;11136;48.778;9.126;2022-12-24T10:51:21;6.00;;;2.03;;
21943;SDS011;11136;48.778;9.126;2022-12-24T10:56:23;8.00;;;2.35;;
21943;SDS011;11136;48.778;9.126;2022-12-24T10:58:52;10.90;;;3.00;;
21943;SDS011;11136;48.778;9.126;2022-12-24T11:01:20;11.87;;;2.90;;
21943;SDS011;11136;48.778;9.126;2022-12-24T11:04:05;7.10;;;2.17;;
21943;SDS011;11136;48.778;9.126;2022-12-24T11:06:31;12.60;;;3.28;;
21943;SDS011;11136;48.778;9.126;2022-12-24T11:09:11;12.35;;;2.78;;
21943;SDS011;11136;48.778;9.126;2022-12-24T11:11:44;7.28;;;2.63;;
21943;SDS011;11136;48.778;9.126;2022-12-24T11:14:11;10.23;;;2.72;;
21943;SDS011;11136;48.778;9.126;2022-12-24T11:16:45;12.05;;;3.05;;
21943;SDS011;11136;48.778;9.126;2022-12-24T11:19:17;9.23;;;2.30;;
21943;SDS011;11136;48.778;9.126;2022-12-24T11:21:47;10.07;;;2.13;;
21943;SDS011;11136;48.778;9.126;2022-12-24T11:24:25;13.57;;;2.85;;
21943;SDS011;11136;48.778;9.126;2022-12-24T11:26:53;9.85;;;2.47;;
21943;SDS011;11136;48.778;9.126;2022-12-24T11:29:39;6.70;;;1.90;;
21943;SDS011;11136;48.778;9.126;2022-12-24T11:32:18;12.25;;;2.30;;
21943;SDS011;11136;48.778;9.126;2022-12-24T11:34:46;9.50;;;2.63;;
21943;SDS011;11136;48.778;9.126;2022-12-24T11:39:39;14.18;;;2.75;;
21943;SDS011;11136;48.778;9.126;2022-12-24T11:42:05;8.65;;;2.28;;
21943;SDS011;11136;48.778;9.126;2022-12-24T11:44:31;10.07;;;2.80;;
21943;SDS011;11136;48.778;9.126;2022-12-24T11:46:57;8.02;;;2.05;;
21943;SDS011;11136;48.778;9.126;2022-12-24T11:49:29;8.93;;;2.30;;
21943;SDS011;11136;48.778;9.126;2022-12-24T11:57:40;11.18;;;3.15;;
21943;SDS011;11136;48.778;9.126;2022-12-24T12:00:25;9.23;;;3.15;;
21943;SDS011;11136;48.778;9.126;2022-12-24T12:02:51;10.63;;;2.97;;
21943;SDS011;11136;48.778;9.126;2022-12-24T12:05:22;7.47;;;2.47;;
21943;SDS011;11136;48.778;9.126;2022-12-24T12:08:29;12.13;;;2.50;;
21943;SDS011;11136;48.778;9.126;2022-12-24T12:10:49;9.52;;;3.33;;
21943;SDS011;11136;48.778;9.126;2022-12-24T12:13:18;9.50;;;2.70;;
21943;SDS011;11136;48.778;9.126;2022-12-24T12:15:54;13.15;;;2.85;;
21943;SDS011;11136;48.778;9.126;2022-12-24T12:18:36;9.77;;;2.30;;
21943;SDS011;11136;48.778;9.126;2022-12-24T12:21:04;11.55;;;2.35;;
21943;SDS011;11136;48.778;9.126;2022-12-24T12:26:13;7.93;;;2.67;;
21943;SDS011;11136;48.778;9.126;2022-12-24T12:28:52;11.80;;;2.83;;
21943;SDS011;11136;48.778;9.126;2022-12-24T12:31:33;11.98;;;2.72;;
21943;SDS011;11136;48.778;9.126;2022-12-24T12:34:19;12.15;;;2.50;;
21943;SDS011;11136;48.778;9.126;2022-12-24T12:37:04;7.68;;;2.25;;
21943;SDS011;11136;48.778;9.126;2022-12-24T12:39:31;16.30;;;3.10;;
21943;SDS011;11136;48.778;9.126;2022-12-24T12:42:12;7.57;;;2.75;;
21943;SDS011;11136;48.778;9.126;2022-12-24T12:50:13;12.30;;;3.50;;
21943;SDS011;11136;48.778;9.126;2022-12-24T12:52:52;8.90;;;2.63;;
21943;SDS011;11136;48.778;9.126;2022-12-24T12:57:55;12.95;;;3.08;;
21943;SDS011;11136;48.778;9.126;2022-12-24T13:00:25;10.82;;;2.22;;
21943;SDS011;11136;48.778;9.126;2022-12-24T13:03:00;15.10;;;3.00;;
21943;SDS011;11136;48.778;9.126;2022-12-24T13:05:51;12.45;;;3.33;;
21943;SDS011;11136;48.778;9.126;2022-12-24T13:11:26;19.00;;;3.35;;
21943;SDS011;11136;48.778;9.126;2022-12-24T13:14:22;7.40;;;2.47;;
21943;SDS011;11136;48.778;9.126;2022-12-24T13:22:47;6.70;;;2.13;;
21943;SDS011;11136;48.778;9.126;2022-12-24T13:25:23;9.48;;;2.28;;
21943;SDS011;11136;48.778;9.126;2022-12-24T13:28:13;8.90;;;2.97;;
21943;SDS011;11136;48.778;9.126;2022-12-24T13:30:39;10.02;;;2.88;;
21943;SDS011;11136;48.778;9.126;2022-12-24T13:33:08;8.73;;;2.60;;
21943;SDS011;11136;48.778;9.126;2022-12-24T13:35:36;9.55;;;2.20;;
21943;SDS011;11136;48.778;9.126;2022-12-24T13:40:53;8.35;;;2.35;;
21943;SDS011;11136;48.778;9.126;2022-12-24T13:43:19;8.02;;;1.90;;
21943;SDS011;11136;48.778;9.126;2022-12-24T13:45:49;12.73;;;2.58;;
21943;SDS011;11136;48.778;9.126;2022-12-24T13:48:27;8.20;;;2.75;;
21943;SDS011;11136;48.778;9.126;2022-12-24T13:50:55;10.70;;;2.58;;
21943;SDS011;11136;48.778;9.126;2022-12-24T13:55:50;14.95;;;3.13;;
21943;SDS011;11136;48.778;9.126;2022-12-24T13:58:19;8.60;;;2.63;;
21943;SDS011;11136;48.778;9.126;2022-12-24T14:00:52;10.18;;;2.33;;
21943;SDS011;11136;48.778;9.126;2022-12-24T14:05:58;7.60;;;1.92;;
21943;SDS011;11136;48.778;9.126;2022-12-24T14:08:40;9.57;;;2.22;;
21943;SDS011;11136;48.778;9.126;2022-12-24T14:11:12;7.60;;;2.40;;
21943;SDS011;11136;48.778;9.126;2022-12-24T14:16:07;13.98;;;2.88;;
21943;SDS011;11136;48.778;9.126;2022-12-24T14:18:36;6.60;;;2.83;;
21943;SDS011;11136;48.778;9.126;2022-12-24T14:21:24;10.00;;;2.63;;
21943;SDS011;11136;48.778;9.126;2022-12-24T14:26:32;6.82;;;2.03;;
21943;SDS011;11136;48.778;9.126;2022-12-24T14:29:20;5.47;;;2.15;;
21943;SDS011;11136;48.778;9.126;2022-12-24T14:31:51;7.53;;;1.83;;
21943;SDS011;11136;48.778;9.126;2022-12-24T14:34:17;8.93;;;2.45;;
21943;SDS011;11136;48.778;9.126;2022-12-24T14:36:43;7.60;;;2.35;;
21943;SDS011;11136;48.778;9.126;2022-12-24T14:39:18;4.57;;;1.80;;
21943;SDS011;11136;48.778;9.126;2022-12-24T14:56:35;9.20;;;2.88;;
21943;SDS011;11136;48.778;9.126;2022-12-24T14:59:12;12.43;;;3.33;;
21943;SDS011;11136;48.778;9.126;2022-12-24T15:01:39;9.23;;;2.60;;
21943;SDS011;11136;48.778;9.126;2022-12-24T15:04:14;12.48;;;3.67;;
21943;SDS011;11136;48.778;9.126;2022-12-24T15:06:48;7.57;;;2.30;;
21943;SDS011;11136;48.778;9.126;2022-12-24T15:09:20;22.63;;;3.22;;
21943;SDS011;11136;48.778;9.126;2022-12-24T15:11:49;9.90;;;3.08;;
21943;SDS011;11136;48.778;9.126;2022-12-24T15:14:18;9.63;;;2.72;;
21943;SDS011;11136;48.778;9.126;2022-12-24T15:16:55;15.45;;;3.53;;
21943;SDS011;11136;48.778;9.126;2022-12-24T15:19:31;12.10;;;2.95;;
21943;SDS011;11136;48.778;9.126;2022-12-24T15:22:00;8.88;;;2.67;;
21943;SDS011;11136;48.778;9.126;2022-12-24T15:24:31;9.10;;;2.67;;
21943;SDS011;11136;48.778;9.126;2022-12-24T15:26:59;6.60;;;2.28;;
21943;SDS011;11136;48.778;9.126;2022-12-24T15:29:30;11.88;;;3.05;;
21943;SDS011;11136;48.778;9.126;2022-12-24T15:32:02;12.20;;;2.95;;
21943;SDS011;11136;48.778;9.126;2022-12-24T15:34:39;12.43;;;2.92;;
21943;SDS011;11136;48.778;9.126;2022-12-24T15:39:54;8.02;;;2.30;;
21943;SDS011;11136;48.778;9.126;2022-12-24T15:42:20;10.55;;;2.28;;
21943;SDS011;11136;48.778;9.126;2022-12-24T15:45:02;9.02;;;2.97;;
21943;SDS011;11136;48.778;9.126;2022-12-24T15:47:30;10.43;;;4.07;;
21943;SDS011;11136;48.778;9.126;2022-12-24T15:50:03;12.57;;;2.60;;
21943;SDS011;11136;48.778;9.126;2022-12-24T15:52:40;6.50;;;2.30;;
21943;SDS011;11136;48.778;9.126;2022-12-24T15:55:26;5.13;;;2.17;;
21943;SDS011;11136;48.778;9.126;2022-12-24T15:57:53;11.00;;;3.13;;
21943;SDS011;11136;48.778;9.126;2022-12-24T16:00:20;17.48;;;4.45;;
21943;SDS011;11136;48.778;9.126;2022-12-24T16:02:55;15.23;;;6.30;;
21943;SDS011;11136;48.778;9.126;2022-12-24T16:05:35;22.25;;;11.65;;
21943;SDS011;11136;48.778;9.126;2022-12-24T16:08:06;16.73;;;7.72;;
21943;SDS011;11136;48.778;9.126;2022-12-24T16:10:47;12.70;;;5.78;;
21943;SDS011;11136;48.778;9.126;2022-12-24T16:13:32;11.25;;;5.07;;
21943;SDS011;11136;48.778;9.126;2022-12-24T16:16:05;11.15;;;4.05;;
21943;SDS011;11136;48.778;9.126;2022-12-24T16:18:41;16.15;;;4.18;;
21943;SDS011;11136;48.778;9.126;2022-12-24T16:21:20;13.45;;;4.45;;
21943;SDS011;11136;48.778;9.126;2022-12-24T16:23:56;18.70;;;5.43;;
21943;SDS011;11136;48.778;9.126;2022-12-24T16:26:30;6.72;;;3.22;;
21943;SDS011;11136;48.778;9.126;2022-12-24T16:28:56;12.80;;;3.40;;
21943;SDS011;11136;48.778;9.126;2022-12-24T16:31:29;6.28;;;2.20;;
21943;SDS011;11136;48.778;9.126;2022-12-24T16:34:00;12.95;;;2.55;;
21943;SDS011;11136;48.778;9.126;2022-12-24T16:36:27;9.20;;;3.70;;
21943;SDS011;11136;48.778;9.126;2022-12-24T16:38:55;11.02;;;4.85;;
21943;SDS011;11136;48.778;9.126;2022-12-24T16:41:40;9.40;;;3.50;;